sensor_id;sensor_type;location;lat;lon;timestamp;temperature;humidity
26270;DHT22;15937;50.612;6.656;2023-05-02T00:00:03;10.80;99.90
26270;DHT22;15937;50.612;6.656;2023-05-02T00:04:06;10.70;99.90
26270;DHT22;15937;50.612;6.656;2023-05-02T00:08:08;10.70;99.90
26270;DHT22;15937;50.612;6.656;2023-05-02T00:12:10;10.70;99.90
26270;DHT22;15937;50.612;6.656;2023-05-02T00:16:11;10.70;99.90
26270;DHT22;15937;50.612;6.656;2023-05-02T00:20:13;10.60;99.90
26270;DHT22;15937;50.612;6.656;2023-05-02T00:24:16;10.50;99.90
26270;DHT22;15937;50.612;6.656;2023-05-02T00:28:18;10.50;99.90
26270;DHT22;15937;50.612;6.656;2023-05-02T00:32:20;10.40;99.90
26270;DHT22;15937;50.612;6.656;2023-05-02T00:36:22;10.40;99.90
26270;DHT22;15937;50.612;6.656;2023-05-02T00:40:23;10.40;99.90
26270;DHT22;15937;50.612;6.656;2023-05-02T00:44:25;10.50;99.90
26270;DHT22;15937;50.612;6.656;2023-05-02T00:48:27;10.40;99.90
26270;DHT22;15937;50.612;6.656;2023-05-02T00:52:29;10.30;99.90
26270;DHT22;15937;50.612;6.656;2023-05-02T00:56:30;10.30;99.90
26270;DHT22;15937;50.612;6.656;2023-05-02T01:05:27;10.10;99.90
26270;DHT22;15937;50.612;6.656;2023-05-02T01:14:11;9.90;99.90
26270;DHT22;15937;50.612;6.656;2023-05-02T01:18:14;9.90;99.90
26270;DHT22;15937;50.612;6.656;2023-05-02T01:22:20;10.00;99.90
26270;DHT22;15937;50.612;6.656;2023-05-02T01:26:31;10.00;99.90
26270;DHT22;15937;50.612;6.656;2023-05-02T01:30:37;10.00;99.90
26270;DHT22;15937;50.612;6.656;2023-05-02T01:34:41;10.00;99.90
26270;DHT22;15937;50.612;6.656;2023-05-02T01:38:43;10.00;99.90
26270;DHT22;15937;50.612;6.656;2023-05-02T01:42:47;10.10;99.90
26270;DHT22;15937;50.612;6.656;2023-05-02T01:46:52;10.10;99.90
26270;DHT22;15937;50.612;6.656;2023-05-02T01:50:56;10.00;99.90
26270;DHT22;15937;50.612;6.656;2023-05-02T01:54:59;10.10;99.90
26270;DHT22;15937;50.612;6.656;2023-05-02T01:59:05;10.00;99.90
26270;DHT22;15937;50.612;6.656;2023-05-02T02:03:08;10.10;99.90
26270;DHT22;15937;50.612;6.656;2023-05-02T02:07:12;10.10;99.90
26270;DHT22;15937;50.612;6.656;2023-05-02T02:11:17;10.10;99.90
26270;DHT22;15937;50.612;6.656;2023-05-02T02:15:26;10.10;99.90
26270;DHT22;15937;50.612;6.656;2023-05-02T02:19:29;10.10;99.90
26270;DHT22;15937;50.612;6.656;2023-05-02T02:23:33;10.00;99.90
26270;DHT22;15937;50.612;6.656;2023-05-02T02:27:37;10.00;99.90
26270;DHT22;15937;50.612;6.656;2023-05-02T02:31:38;10.00;99.90
26270;DHT22;15937;50.612;6.656;2023-05-02T02:35:43;10.10;99.90
26270;DHT22;15937;50.612;6.656;2023-05-02T02:44:51;9.90;99.90
26270;DHT22;15937;50.612;6.656;2023-05-02T02:49:44;9.80;99.90
26270;DHT22;15937;50.612;6.656;2023-05-02T02:53:31;9.70;99.90
26270;DHT22;15937;50.612;6.656;2023-05-02T02:57:54;9.70;99.90
26270;DHT22;15937;50.612;6.656;2023-05-02T03:02:17;9.50;99.90
26270;DHT22;15937;50.612;6.656;2023-05-02T03:06:20;9.60;99.90
26270;DHT22;15937;50.612;6.656;2023-05-02T03:10:22;9.50;99.90
26270;DHT22;15937;50.612;6.656;2023-05-02T03:14:24;9.50;99.90
26270;DHT22;15937;50.612;6.656;2023-05-02T03:18:25;9.60;99.90
26270;DHT22;15937;50.612;6.656;2023-05-02T03:22:27;9.40;99.90
26270;DHT22;15937;50.612;6.656;2023-05-02T03:26:29;9.40;99.90
26270;DHT22;15937;50.612;6.656;2023-05-02T03:30:31;9.30;99.90
26270;DHT22;15937;50.612;6.656;2023-05-02T03:34:32;9.30;99.90
26270;DHT22;15937;50.612;6.656;2023-05-02T03:38:34;9.40;99.90
26270;DHT22;15937;50.612;6.656;2023-05-02T03:42:36;9.30;99.90
26270;DHT22;15937;50.612;6.656;2023-05-02T03:46:41;9.40;99.90
26270;DHT22;15937;50.612;6.656;2023-05-02T03:50:43;9.30;99.90
26270;DHT22;15937;50.612;6.656;2023-05-02T03:54:45;9.40;99.90
26270;DHT22;15937;50.612;6.656;2023-05-02T03:58:47;9.30;99.90
26270;DHT22;15937;50.612;6.656;2023-05-02T04:02:49;9.30;99.90
26270;DHT22;15937;50.612;6.656;2023-05-02T04:06:51;9.30;99.90
26270;DHT22;15937;50.612;6.656;2023-05-02T04:10:53;9.30;99.90
26270;DHT22;15937;50.612;6.656;2023-05-02T04:14:55;9.30;99.90
26270;DHT22;15937;50.612;6.656;2023-05-02T04:18:56;9.40;99.90
26270;DHT22;15937;50.612;6.656;2023-05-02T04:23:00;9.40;99.90
26270;DHT22;15937;50.612;6.656;2023-05-02T04:27:02;9.40;99.90
26270;DHT22;15937;50.612;6.656;2023-05-02T04:31:04;9.50;99.90
26270;DHT22;15937;50.612;6.656;2023-05-02T04:35:06;9.50;99.90
26270;DHT22;15937;50.612;6.656;2023-05-02T04:39:08;9.50;99.90
26270;DHT22;15937;50.612;6.656;2023-05-02T04:43:10;9.50;99.90
26270;DHT22;15937;50.612;6.656;2023-05-02T04:47:11;9.40;99.90
26270;DHT22;15937;50.612;6.656;2023-05-02T04:51:13;9.40;99.90
26270;DHT22;15937;50.612;6.656;2023-05-02T04:55:17;9.50;99.90
26270;DHT22;15937;50.612;6.656;2023-05-02T04:59:19;9.50;99.90
26270;DHT22;15937;50.612;6.656;2023-05-02T05:03:21;9.50;99.90
26270;DHT22;15937;50.612;6.656;2023-05-02T05:07:23;9.40;99.90
26270;DHT22;15937;50.612;6.656;2023-05-02T05:11:26;9.40;99.90
26270;DHT22;15937;50.612;6.656;2023-05-02T05:15:31;9.40;99.90
26270;DHT22;15937;50.612;6.656;2023-05-02T05:19:33;9.30;99.90
26270;DHT22;15937;50.612;6.656;2023-05-02T05:23:36;9.50;99.90
26270;DHT22;15937;50.612;6.656;2023-05-02T05:27:38;9.40;99.90
26270;DHT22;15937;50.612;6.656;2023-05-02T05:31:40;9.40;99.90
26270;DHT22;15937;50.612;6.656;2023-05-02T05:35:42;9.50;99.90
26270;DHT22;15937;50.612;6.656;2023-05-02T05:39:44;9.40;99.90
26270;DHT22;15937;50.612;6.656;2023-05-02T05:43:46;9.40;99.90
26270;DHT22;15937;50.612;6.656;2023-05-02T05:47:47;9.40;99.90
26270;DHT22;15937;50.612;6.656;2023-05-02T05:51:49;9.40;99.90
26270;DHT22;15937;50.612;6.656;2023-05-02T05:55:51;9.40;99.90
26270;DHT22;15937;50.612;6.656;2023-05-02T05:59:52;9.60;99.90
26270;DHT22;15937;50.612;6.656;2023-05-02T06:03:54;9.60;99.90
26270;DHT22;15937;50.612;6.656;2023-05-02T06:07:57;9.60;99.90
26270;DHT22;15937;50.612;6.656;2023-05-02T06:12:00;9.50;99.90
26270;DHT22;15937;50.612;6.656;2023-05-02T06:16:02;9.50;99.90
26270;DHT22;15937;50.612;6.656;2023-05-02T06:20:05;9.50;99.90
26270;DHT22;15937;50.612;6.656;2023-05-02T06:24:07;9.50;99.90
26270;DHT22;15937;50.612;6.656;2023-05-02T06:28:09;9.40;99.90
26270;DHT22;15937;50.612;6.656;2023-05-02T06:32:10;9.20;99.90
26270;DHT22;15937;50.612;6.656;2023-05-02T06:36:12;9.20;99.90
26270;DHT22;15937;50.612;6.656;2023-05-02T06:40:14;9.10;99.90
26270;DHT22;15937;50.612;6.656;2023-05-02T06:44:16;9.20;99.90
26270;DHT22;15937;50.612;6.656;2023-05-02T06:48:18;9.20;99.90
26270;DHT22;15937;50.612;6.656;2023-05-02T06:52:19;9.20;99.90
26270;DHT22;15937;50.612;6.656;2023-05-02T06:56:22;9.20;99.90
26270;DHT22;15937;50.612;6.656;2023-05-02T07:00:26;9.30;99.90
26270;DHT22;15937;50.612;6.656;2023-05-02T07:04:27;9.30;99.90
26270;DHT22;15937;50.612;6.656;2023-05-02T07:08:32;9.40;99.90
26270;DHT22;15937;50.612;6.656;2023-05-02T07:12:34;9.30;99.90
26270;DHT22;15937;50.612;6.656;2023-05-02T07:16:36;9.30;99.90
26270;DHT22;15937;50.612;6.656;2023-05-02T07:20:38;9.30;99.90
26270;DHT22;15937;50.612;6.656;2023-05-02T07:24:42;9.20;99.90
26270;DHT22;15937;50.612;6.656;2023-05-02T07:28:44;9.40;99.90
26270;DHT22;15937;50.612;6.656;2023-05-02T07:32:46;9.30;99.90
26270;DHT22;15937;50.612;6.656;2023-05-02T07:36:50;9.30;99.90
26270;DHT22;15937;50.612;6.656;2023-05-02T07:40:51;9.40;99.90
26270;DHT22;15937;50.612;6.656;2023-05-02T07:44:53;9.40;99.90
26270;DHT22;15937;50.612;6.656;2023-05-02T07:48:55;9.20;99.90
26270;DHT22;15937;50.612;6.656;2023-05-02T07:52:57;9.50;99.90
26270;DHT22;15937;50.612;6.656;2023-05-02T07:56:59;9.50;99.90
26270;DHT22;15937;50.612;6.656;2023-05-02T08:01:03;9.70;99.90
26270;DHT22;15937;50.612;6.656;2023-05-02T08:05:05;9.60;99.90
26270;DHT22;15937;50.612;6.656;2023-05-02T08:09:08;9.70;99.90
26270;DHT22;15937;50.612;6.656;2023-05-02T08:13:10;9.70;99.90
26270;DHT22;15937;50.612;6.656;2023-05-02T08:17:12;9.80;99.90
26270;DHT22;15937;50.612;6.656;2023-05-02T08:21:14;9.80;99.90
26270;DHT22;15937;50.612;6.656;2023-05-02T08:25:15;9.70;99.90
26270;DHT22;15937;50.612;6.656;2023-05-02T08:29:17;9.90;99.90
26270;DHT22;15937;50.612;6.656;2023-05-02T08:33:19;9.70;99.90
26270;DHT22;15937;50.612;6.656;2023-05-02T08:37:21;9.90;99.90
26270;DHT22;15937;50.612;6.656;2023-05-02T08:41:24;9.80;99.90
26270;DHT22;15937;50.612;6.656;2023-05-02T08:45:26;10.00;99.90
26270;DHT22;15937;50.612;6.656;2023-05-02T08:49:31;9.90;99.90
26270;DHT22;15937;50.612;6.656;2023-05-02T08:53:36;10.00;99.90
26270;DHT22;15937;50.612;6.656;2023-05-02T08:57:38;9.90;99.90
26270;DHT22;15937;50.612;6.656;2023-05-02T09:01:41;9.80;99.90
26270;DHT22;15937;50.612;6.656;2023-05-02T09:05:46;9.70;99.90
26270;DHT22;15937;50.612;6.656;2023-05-02T09:09:52;9.50;99.90
26270;DHT22;15937;50.612;6.656;2023-05-02T09:13:53;9.40;99.90
26270;DHT22;15937;50.612;6.656;2023-05-02T09:17:56;9.50;99.90
26270;DHT22;15937;50.612;6.656;2023-05-02T09:21:59;9.70;99.90
26270;DHT22;15937;50.612;6.656;2023-05-02T09:26:28;9.80;99.90
26270;DHT22;15937;50.612;6.656;2023-05-02T09:30:33;10.00;99.90
26270;DHT22;15937;50.612;6.656;2023-05-02T09:34:35;10.30;99.90
26270;DHT22;15937;50.612;6.656;2023-05-02T09:38:43;10.40;99.90
26270;DHT22;15937;50.612;6.656;2023-05-02T09:42:45;10.40;99.90
26270;DHT22;15937;50.612;6.656;2023-05-02T09:46:55;10.30;99.90
26270;DHT22;15937;50.612;6.656;2023-05-02T09:50:58;10.60;99.90
26270;DHT22;15937;50.612;6.656;2023-05-02T09:55:00;10.50;99.90
26270;DHT22;15937;50.612;6.656;2023-05-02T09:59:12;10.40;99.90
26270;DHT22;15937;50.612;6.656;2023-05-02T10:03:16;10.60;99.90
26270;DHT22;15937;50.612;6.656;2023-05-02T10:07:18;10.60;99.90
26270;DHT22;15937;50.612;6.656;2023-05-02T10:11:20;10.50;99.90
26270;DHT22;15937;50.612;6.656;2023-05-02T10:15:23;10.80;99.90
26270;DHT22;15937;50.612;6.656;2023-05-02T10:19:36;10.90;99.90
26270;DHT22;15937;50.612;6.656;2023-05-02T10:23:42;10.90;99.90
26270;DHT22;15937;50.612;6.656;2023-05-02T10:27:47;10.90;99.90
26270;DHT22;15937;50.612;6.656;2023-05-02T10:31:49;11.20;99.90
26270;DHT22;15937;50.612;6.656;2023-05-02T10:35:52;11.40;99.90
26270;DHT22;15937;50.612;6.656;2023-05-02T10:39:55;11.60;99.90
26270;DHT22;15937;50.612;6.656;2023-05-02T10:43:57;11.50;99.90
26270;DHT22;15937;50.612;6.656;2023-05-02T10:48:13;11.10;99.90
26270;DHT22;15937;50.612;6.656;2023-05-02T10:52:26;11.20;99.90
26270;DHT22;15937;50.612;6.656;2023-05-02T10:56:30;11.20;99.90
26270;DHT22;15937;50.612;6.656;2023-05-02T11:00:33;11.70;99.90
26270;DHT22;15937;50.612;6.656;2023-05-02T11:05:07;11.80;99.90
26270;DHT22;15937;50.612;6.656;2023-05-02T11:13:15;11.50;99.90
26270;DHT22;15937;50.612;6.656;2023-05-02T11:17:17;11.80;99.90
26270;DHT22;15937;50.612;6.656;2023-05-02T11:21:29;11.40;99.90
26270;DHT22;15937;50.612;6.656;2023-05-02T11:25:37;11.70;99.90
26270;DHT22;15937;50.612;6.656;2023-05-02T11:29:52;11.70;99.90
26270;DHT22;15937;50.612;6.656;2023-05-02T11:33:58;11.50;99.90
26270;DHT22;15937;50.612;6.656;2023-05-02T11:38:02;11.60;99.90
26270;DHT22;15937;50.612;6.656;2023-05-02T11:42:04;11.00;99.90
26270;DHT22;15937;50.612;6.656;2023-05-02T11:46:06;10.80;99.90
26270;DHT22;15937;50.612;6.656;2023-05-02T11:50:08;10.80;99.90
26270;DHT22;15937;50.612;6.656;2023-05-02T11:54:18;10.40;99.90
26270;DHT22;15937;50.612;6.656;2023-05-02T11:58:21;10.80;99.90
26270;DHT22;15937;50.612;6.656;2023-05-02T12:02:43;11.10;99.90
26270;DHT22;15937;50.612;6.656;2023-05-02T12:06:57;11.40;99.90
26270;DHT22;15937;50.612;6.656;2023-05-02T12:10:59;11.30;99.90
26270;DHT22;15937;50.612;6.656;2023-05-02T12:15:08;11.00;99.90
26270;DHT22;15937;50.612;6.656;2023-05-02T12:19:11;11.50;99.90
26270;DHT22;15937;50.612;6.656;2023-05-02T12:23:13;11.20;99.90
26270;DHT22;15937;50.612;6.656;2023-05-02T12:27:15;12.00;99.90
26270;DHT22;15937;50.612;6.656;2023-05-02T12:31:17;11.90;99.90
26270;DHT22;15937;50.612;6.656;2023-05-02T12:35:21;12.10;99.90
26270;DHT22;15937;50.612;6.656;2023-05-02T12:39:40;12.00;99.90
26270;DHT22;15937;50.612;6.656;2023-05-02T12:43:45;11.90;99.90
26270;DHT22;15937;50.612;6.656;2023-05-02T12:47:47;11.90;99.90
26270;DHT22;15937;50.612;6.656;2023-05-02T12:51:52;12.20;99.90
26270;DHT22;15937;50.612;6.656;2023-05-02T12:56:02;12.00;99.90
26270;DHT22;15937;50.612;6.656;2023-05-02T13:00:04;11.80;99.90
26270;DHT22;15937;50.612;6.656;2023-05-02T13:04:06;12.00;99.90
26270;DHT22;15937;50.612;6.656;2023-05-02T13:08:08;12.00;99.90
26270;DHT22;15937;50.612;6.656;2023-05-02T13:12:10;11.90;99.90
26270;DHT22;15937;50.612;6.656;2023-05-02T13:16:12;11.50;99.90
26270;DHT22;15937;50.612;6.656;2023-05-02T13:20:14;11.80;99.90
26270;DHT22;15937;50.612;6.656;2023-05-02T13:24:16;11.70;99.90
26270;DHT22;15937;50.612;6.656;2023-05-02T13:28:18;11.90;99.90
26270;DHT22;15937;50.612;6.656;2023-05-02T13:32:20;11.90;99.90
26270;DHT22;15937;50.612;6.656;2023-05-02T13:36:22;12.10;99.90
26270;DHT22;15937;50.612;6.656;2023-05-02T13:40:25;11.60;99.90
26270;DHT22;15937;50.612;6.656;2023-05-02T13:44:26;11.70;99.90
26270;DHT22;15937;50.612;6.656;2023-05-02T13:48:28;11.80;99.90
26270;DHT22;15937;50.612;6.656;2023-05-02T13:52:30;11.70;99.90
26270;DHT22;15937;50.612;6.656;2023-05-02T13:56:32;11.90;99.90
26270;DHT22;15937;50.612;6.656;2023-05-02T14:00:33;12.10;99.90
26270;DHT22;15937;50.612;6.656;2023-05-02T14:04:36;11.90;99.90
26270;DHT22;15937;50.612;6.656;2023-05-02T14:08:37;12.30;99.90
26270;DHT22;15937;50.612;6.656;2023-05-02T14:12:39;12.10;99.90
26270;DHT22;15937;50.612;6.656;2023-05-02T14:16:41;12.10;99.90
26270;DHT22;15937;50.612;6.656;2023-05-02T14:20:43;12.10;99.90
26270;DHT22;15937;50.612;6.656;2023-05-02T14:24:44;12.00;99.90
26270;DHT22;15937;50.612;6.656;2023-05-02T14:28:46;11.80;99.90
26270;DHT22;15937;50.612;6.656;2023-05-02T14:32:48;11.90;99.90
26270;DHT22;15937;50.612;6.656;2023-05-02T14:36:50;12.10;99.90
26270;DHT22;15937;50.612;6.656;2023-05-02T14:40:51;11.90;99.90
26270;DHT22;15937;50.612;6.656;2023-05-02T14:44:53;12.20;99.90
26270;DHT22;15937;50.612;6.656;2023-05-02T14:48:55;12.20;99.90
26270;DHT22;15937;50.612;6.656;2023-05-02T14:52:57;12.30;99.90
26270;DHT22;15937;50.612;6.656;2023-05-02T14:56:59;12.50;99.90
26270;DHT22;15937;50.612;6.656;2023-05-02T15:01:01;12.40;99.90
26270;DHT22;15937;50.612;6.656;2023-05-02T15:05:03;12.60;99.90
26270;DHT22;15937;50.612;6.656;2023-05-02T15:09:07;12.60;99.90
26270;DHT22;15937;50.612;6.656;2023-05-02T15:13:09;12.30;99.90
26270;DHT22;15937;50.612;6.656;2023-05-02T15:17:11;12.30;99.90
26270;DHT22;15937;50.612;6.656;2023-05-02T15:21:13;12.30;99.90
26270;DHT22;15937;50.612;6.656;2023-05-02T15:25:15;12.30;99.90
26270;DHT22;15937;50.612;6.656;2023-05-02T15:29:17;12.40;99.90
26270;DHT22;15937;50.612;6.656;2023-05-02T15:33:18;12.30;99.90
26270;DHT22;15937;50.612;6.656;2023-05-02T15:37:20;12.40;99.90
26270;DHT22;15937;50.612;6.656;2023-05-02T15:41:23;12.70;99.90
26270;DHT22;15937;50.612;6.656;2023-05-02T15:45:27;12.60;99.90
26270;DHT22;15937;50.612;6.656;2023-05-02T15:49:29;12.80;99.90
26270;DHT22;15937;50.612;6.656;2023-05-02T15:53:38;12.40;99.90
26270;DHT22;15937;50.612;6.656;2023-05-02T15:57:42;12.00;99.90
26270;DHT22;15937;50.612;6.656;2023-05-02T16:01:44;12.00;99.90
26270;DHT22;15937;50.612;6.656;2023-05-02T16:05:46;12.30;99.90
26270;DHT22;15937;50.612;6.656;2023-05-02T16:09:47;12.80;99.90
26270;DHT22;15937;50.612;6.656;2023-05-02T16:13:49;12.50;99.90
26270;DHT22;15937;50.612;6.656;2023-05-02T16:17:51;12.60;99.90
26270;DHT22;15937;50.612;6.656;2023-05-02T16:21:53;12.40;99.90
26270;DHT22;15937;50.612;6.656;2023-05-02T16:25:58;12.60;99.90
26270;DHT22;15937;50.612;6.656;2023-05-02T16:30:01;12.90;99.90
26270;DHT22;15937;50.612;6.656;2023-05-02T16:34:03;12.70;99.90
26270;DHT22;15937;50.612;6.656;2023-05-02T16:38:05;12.50;99.90
26270;DHT22;15937;50.612;6.656;2023-05-02T16:42:07;12.40;99.90
26270;DHT22;15937;50.612;6.656;2023-05-02T16:46:08;12.80;99.90
26270;DHT22;15937;50.612;6.656;2023-05-02T16:50:10;12.60;99.90
26270;DHT22;15937;50.612;6.656;2023-05-02T16:54:12;12.80;99.70
26270;DHT22;15937;50.612;6.656;2023-05-02T16:58:13;12.80;98.30
26270;DHT22;15937;50.612;6.656;2023-05-02T17:02:16;13.10;98.40
26270;DHT22;15937;50.612;6.656;2023-05-02T17:06:19;12.70;98.20
26270;DHT22;15937;50.612;6.656;2023-05-02T17:10:21;12.70;97.80
26270;DHT22;15937;50.612;6.656;2023-05-02T17:14:22;12.70;96.70
26270;DHT22;15937;50.612;6.656;2023-05-02T17:18:24;12.40;96.90
26270;DHT22;15937;50.612;6.656;2023-05-02T17:22:27;12.70;97.50
26270;DHT22;15937;50.612;6.656;2023-05-02T17:26:28;12.30;97.80
26270;DHT22;15937;50.612;6.656;2023-05-02T17:30:30;12.70;98.00
26270;DHT22;15937;50.612;6.656;2023-05-02T17:34:32;12.50;96.80
26270;DHT22;15937;50.612;6.656;2023-05-02T17:38:36;12.40;96.40
26270;DHT22;15937;50.612;6.656;2023-05-02T17:42:37;12.60;95.90
26270;DHT22;15937;50.612;6.656;2023-05-02T17:46:39;12.70;96.50
26270;DHT22;15937;50.612;6.656;2023-05-02T17:50:42;12.20;96.50
26270;DHT22;15937;50.612;6.656;2023-05-02T17:54:44;12.30;97.20
26270;DHT22;15937;50.612;6.656;2023-05-02T17:58:46;11.90;96.40
26270;DHT22;15937;50.612;6.656;2023-05-02T18:02:47;11.50;98.10
26270;DHT22;15937;50.612;6.656;2023-05-02T18:06:50;11.40;99.30
26270;DHT22;15937;50.612;6.656;2023-05-02T18:10:52;11.40;99.80
26270;DHT22;15937;50.612;6.656;2023-05-02T18:14:53;11.30;99.80
26270;DHT22;15937;50.612;6.656;2023-05-02T18:18:56;11.40;99.90
26270;DHT22;15937;50.612;6.656;2023-05-02T18:22:57;11.20;99.90
26270;DHT22;15937;50.612;6.656;2023-05-02T18:27:01;11.20;99.90
26270;DHT22;15937;50.612;6.656;2023-05-02T18:31:03;11.00;99.90
26270;DHT22;15937;50.612;6.656;2023-05-02T18:35:08;11.00;99.90
26270;DHT22;15937;50.612;6.656;2023-05-02T18:39:13;10.90;99.90
26270;DHT22;15937;50.612;6.656;2023-05-02T18:43:15;10.80;99.90
26270;DHT22;15937;50.612;6.656;2023-05-02T18:47:16;10.80;99.90
26270;DHT22;15937;50.612;6.656;2023-05-02T18:51:18;10.70;99.90
26270;DHT22;15937;50.612;6.656;2023-05-02T18:55:19;10.70;99.90
26270;DHT22;15937;50.612;6.656;2023-05-02T18:59:25;10.40;99.90
26270;DHT22;15937;50.612;6.656;2023-05-02T19:03:27;10.60;99.90
26270;DHT22;15937;50.612;6.656;2023-05-02T19:07:29;10.50;99.90
26270;DHT22;15937;50.612;6.656;2023-05-02T19:11:30;10.60;99.90
26270;DHT22;15937;50.612;6.656;2023-05-02T19:15:32;10.60;99.90
26270;DHT22;15937;50.612;6.656;2023-05-02T19:19:34;10.60;99.90
26270;DHT22;15937;50.612;6.656;2023-05-02T19:23:36;10.40;99.90
26270;DHT22;15937;50.612;6.656;2023-05-02T19:27:38;10.40;99.90
26270;DHT22;15937;50.612;6.656;2023-05-02T19:31:41;10.40;99.90
26270;DHT22;15937;50.612;6.656;2023-05-02T19:35:44;10.30;99.90
26270;DHT22;15937;50.612;6.656;2023-05-02T19:39:46;10.10;99.90
26270;DHT22;15937;50.612;6.656;2023-05-02T19:43:47;10.00;99.90
26270;DHT22;15937;50.612;6.656;2023-05-02T19:47:49;9.90;99.90
26270;DHT22;15937;50.612;6.656;2023-05-02T19:51:51;9.60;99.90
26270;DHT22;15937;50.612;6.656;2023-05-02T19:55:52;9.20;99.90
26270;DHT22;15937;50.612;6.656;2023-05-02T19:59:54;9.10;99.90
26270;DHT22;15937;50.612;6.656;2023-05-02T20:03:56;9.10;99.90
26270;DHT22;15937;50.612;6.656;2023-05-02T20:07:58;9.20;99.90
26270;DHT22;15937;50.612;6.656;2023-05-02T20:12:00;9.10;99.90
26270;DHT22;15937;50.612;6.656;2023-05-02T20:16:02;9.30;99.90
26270;DHT22;15937;50.612;6.656;2023-05-02T20:20:05;9.10;99.90
26270;DHT22;15937;50.612;6.656;2023-05-02T20:24:11;9.00;99.90
26270;DHT22;15937;50.612;6.656;2023-05-02T20:28:13;9.10;99.90
26270;DHT22;15937;50.612;6.656;2023-05-02T20:32:15;8.80;99.90
26270;DHT22;15937;50.612;6.656;2023-05-02T20:36:17;8.60;99.90
26270;DHT22;15937;50.612;6.656;2023-05-02T20:40:18;8.80;99.90
26270;DHT22;15937;50.612;6.656;2023-05-02T20:44:22;8.60;99.90
26270;DHT22;15937;50.612;6.656;2023-05-02T20:48:27;8.50;99.90
26270;DHT22;15937;50.612;6.656;2023-05-02T20:52:28;8.40;99.90
26270;DHT22;15937;50.612;6.656;2023-05-02T20:56:31;8.40;99.90
26270;DHT22;15937;50.612;6.656;2023-05-02T21:00:32;8.50;99.90
26270;DHT22;15937;50.612;6.656;2023-05-02T21:04:34;8.20;99.90
26270;DHT22;15937;50.612;6.656;2023-05-02T21:08:36;8.10;99.90
26270;DHT22;15937;50.612;6.656;2023-05-02T21:12:37;7.90;99.90
26270;DHT22;15937;50.612;6.656;2023-05-02T21:16:40;7.50;99.90
26270;DHT22;15937;50.612;6.656;2023-05-02T21:20:41;7.70;99.90
26270;DHT22;15937;50.612;6.656;2023-05-02T21:24:43;7.70;99.90
26270;DHT22;15937;50.612;6.656;2023-05-02T21:28:48;7.60;99.90
26270;DHT22;15937;50.612;6.656;2023-05-02T21:32:50;7.50;99.90
26270;DHT22;15937;50.612;6.656;2023-05-02T21:36:52;6.70;99.90
26270;DHT22;15937;50.612;6.656;2023-05-02T21:40:53;6.70;99.90
26270;DHT22;15937;50.612;6.656;2023-05-02T21:44:55;7.20;99.90
26270;DHT22;15937;50.612;6.656;2023-05-02T21:48:57;7.30;99.90
26270;DHT22;15937;50.612;6.656;2023-05-02T21:52:58;7.40;99.90
26270;DHT22;15937;50.612;6.656;2023-05-02T21:57:01;7.30;99.90
26270;DHT22;15937;50.612;6.656;2023-05-02T22:01:04;7.40;99.90
26270;DHT22;15937;50.612;6.656;2023-05-02T22:05:06;7.40;99.90
26270;DHT22;15937;50.612;6.656;2023-05-02T22:09:08;7.20;99.90
26270;DHT22;15937;50.612;6.656;2023-05-02T22:13:12;6.90;99.90
26270;DHT22;15937;50.612;6.656;2023-05-02T22:17:14;6.80;99.90
26270;DHT22;15937;50.612;6.656;2023-05-02T22:21:19;6.70;99.90
26270;DHT22;15937;50.612;6.656;2023-05-02T22:25:20;6.70;99.90
26270;DHT22;15937;50.612;6.656;2023-05-02T22:29:22;6.50;99.90
26270;DHT22;15937;50.612;6.656;2023-05-02T22:33:24;6.10;99.90
26270;DHT22;15937;50.612;6.656;2023-05-02T22:37:25;6.00;99.90
26270;DHT22;15937;50.612;6.656;2023-05-02T22:41:27;6.10;99.90
26270;DHT22;15937;50.612;6.656;2023-05-02T22:45:29;5.80;99.90
26270;DHT22;15937;50.612;6.656;2023-05-02T22:49:31;5.70;99.90
26270;DHT22;15937;50.612;6.656;2023-05-02T22:53:33;5.90;99.90
26270;DHT22;15937;50.612;6.656;2023-05-02T22:57:36;5.60;99.90
26270;DHT22;15937;50.612;6.656;2023-05-02T23:01:37;5.20;99.90
26270;DHT22;15937;50.612;6.656;2023-05-02T23:05:39;5.50;99.90
26270;DHT22;15937;50.612;6.656;2023-05-02T23:09:41;5.70;99.90
26270;DHT22;15937;50.612;6.656;2023-05-02T23:13:42;5.60;99.90
26270;DHT22;15937;50.612;6.656;2023-05-02T23:17:44;5.50;99.90
26270;DHT22;15937;50.612;6.656;2023-05-02T23:21:46;5.60;99.90
26270;DHT22;15937;50.612;6.656;2023-05-02T23:25:48;4.90;99.90
26270;DHT22;15937;50.612;6.656;2023-05-02T23:29:50;4.40;99.90
26270;DHT22;15937;50.612;6.656;2023-05-02T23:33:52;5.00;99.90
26270;DHT22;15937;50.612;6.656;2023-05-02T23:37:57;5.00;99.90
26270;DHT22;15937;50.612;6.656;2023-05-02T23:41:59;5.20;99.90
26270;DHT22;15937;50.612;6.656;2023-05-02T23:46:04;5.30;99.90
26270;DHT22;15937;50.612;6.656;2023-05-02T23:50:07;5.00;99.90
26270;DHT22;15937;50.612;6.656;2023-05-02T23:54:08;4.80;99.90
26270;DHT22;15937;50.612;6.656;2023-05-02T23:58:10;4.50;99.90
